createdAt,value
2018-06-21T00:02:24.060Z,85.10
2018-06-21T00:04:53.257Z,85.10
2018-06-21T00:07:22.456Z,85.00
2018-06-21T00:09:51.728Z,85.80
2018-06-21T00:12:20.954Z,85.30
2018-06-21T00:14:50.284Z,85.40
2018-06-21T00:17:19.477Z,85.40
2018-06-21T00:19:48.632Z,85.40
2018-06-21T00:22:17.808Z,85.30
2018-06-21T00:24:47.067Z,85.20
2018-06-21T00:27:16.250Z,85.40
2018-06-21T00:29:45.423Z,85.10
2018-06-21T00:32:14.690Z,85.20
2018-06-21T00:34:43.878Z,85.40
2018-06-21T00:37:13.074Z,85.40
2018-06-21T00:39:42.350Z,85.30
2018-06-21T00:42:11.590Z,85.30
2018-06-21T00:44:40.800Z,85.40
2018-06-21T00:47:10.230Z,85.40
2018-06-21T00:49:39.446Z,85.70
2018-06-21T00:52:08.643Z,85.50
2018-06-21T00:54:37.858Z,85.70
2018-06-21T00:57:07.306Z,85.40
2018-06-21T00:59:36.480Z,85.60
2018-06-21T01:02:06.004Z,85.40
2018-06-21T01:04:35.254Z,85.30
2018-06-21T01:07:04.901Z,85.50
2018-06-21T01:09:34.106Z,85.50
2018-06-21T01:12:03.395Z,85.60
2018-06-21T01:14:32.602Z,85.70
2018-06-21T01:17:01.779Z,86.10
2018-06-21T01:19:30.931Z,86.30
2018-06-21T01:22:00.115Z,86.50
2018-06-21T01:24:29.351Z,87.50
2018-06-21T01:29:27.579Z,87.10
2018-06-21T01:31:56.778Z,87.30
2018-06-21T01:34:25.992Z,87.50
2018-06-21T01:36:55.158Z,87.50
2018-06-21T01:39:24.378Z,87.70
2018-06-21T01:41:53.664Z,87.60
2018-06-21T01:44:22.906Z,87.80
2018-06-21T01:46:52.097Z,87.70
2018-06-21T01:49:21.358Z,87.90
2018-06-21T01:51:50.552Z,88.10
2018-06-21T01:54:19.756Z,88.40
2018-06-21T01:56:48.984Z,88.30
2018-06-21T01:59:18.158Z,88.50
2018-06-21T02:01:47.364Z,88.50
2018-06-21T02:04:16.527Z,88.60
2018-06-21T02:06:45.927Z,88.80
2018-06-21T02:09:15.089Z,88.80
2018-06-21T02:11:44.275Z,88.80
2018-06-21T02:14:13.926Z,88.90
2018-06-21T02:16:43.443Z,89.30
2018-06-21T02:19:12.728Z,89.50
2018-06-21T02:21:41.924Z,89.50
2018-06-21T02:24:11.207Z,89.50
2018-06-21T02:26:40.423Z,89.50
2018-06-21T02:29:09.611Z,89.60
2018-06-21T02:31:38.990Z,90.00
2018-06-21T02:34:08.507Z,90.10
2018-06-21T02:36:37.776Z,90.10
2018-06-21T02:39:08.218Z,90.10
2018-06-21T02:44:06.186Z,90.30
2018-06-21T02:46:35.634Z,90.30
2018-06-21T02:49:05.258Z,90.50
2018-06-21T02:51:34.643Z,90.60
2018-06-21T02:54:03.835Z,90.70
2018-06-21T02:56:33.054Z,90.90
2018-06-21T02:59:02.247Z,91.00
2018-06-21T03:01:31.758Z,91.20
2018-06-21T03:04:01.060Z,91.30
2018-06-21T03:08:58.973Z,91.30
2018-06-21T03:11:28.266Z,91.40
2018-06-21T03:13:57.680Z,91.40
2018-06-21T03:16:26.833Z,91.50
2018-06-21T03:18:56.186Z,91.50
2018-06-21T03:21:25.415Z,91.50
2018-06-21T03:23:54.595Z,91.60
2018-06-21T03:26:23.771Z,91.60
2018-06-21T03:28:52.942Z,91.60
2018-06-21T03:31:22.357Z,92.00
2018-06-21T03:33:51.525Z,91.60
2018-06-21T03:36:20.760Z,91.80
2018-06-21T03:38:50.059Z,92.00
2018-06-21T03:41:19.287Z,92.00
2018-06-21T03:43:48.506Z,92.10
2018-06-21T03:46:17.719Z,92.20
2018-06-21T03:48:46.922Z,92.10
2018-06-21T03:51:16.093Z,92.30
2018-06-21T03:53:45.318Z,92.30
2018-06-21T03:56:14.504Z,92.30
2018-06-21T03:58:43.667Z,92.40
2018-06-21T04:01:12.875Z,92.30
2018-06-21T04:03:42.054Z,92.40
2018-06-21T04:06:11.263Z,92.40
2018-06-21T04:08:40.459Z,92.30
2018-06-21T04:11:09.690Z,92.50
2018-06-21T04:13:38.972Z,92.60
2018-06-21T04:16:08.191Z,92.80
2018-06-21T04:18:37.954Z,92.70
2018-06-21T04:21:08.478Z,92.70
2018-06-21T04:26:06.537Z,92.40
2018-06-21T04:28:35.702Z,92.40
2018-06-21T04:31:04.905Z,92.40
2018-06-21T04:33:34.142Z,92.20
2018-06-21T04:36:03.336Z,92.20
2018-06-21T04:38:32.542Z,91.80
2018-06-21T04:41:01.743Z,91.60
2018-06-21T04:43:30.933Z,91.60
2018-06-21T04:46:00.372Z,91.50
2018-06-21T04:48:29.543Z,91.30
2018-06-21T04:50:58.791Z,91.00
2018-06-21T04:53:27.992Z,90.60
2018-06-21T04:55:57.181Z,90.40
2018-06-21T04:58:26.379Z,90.20
2018-06-21T05:00:55.590Z,90.00
2018-06-21T05:03:24.846Z,89.40
2018-06-21T05:05:54.052Z,89.50
2018-06-21T05:08:23.240Z,89.70
2018-06-21T05:10:52.487Z,88.50
2018-06-21T05:13:21.655Z,87.80
2018-06-21T05:15:50.870Z,87.00
2018-06-21T05:18:20.131Z,87.10
2018-06-21T05:20:49.318Z,86.00
2018-06-21T05:23:18.545Z,84.90
2018-06-21T05:25:48.500Z,85.70
2018-06-21T05:28:17.714Z,85.20
2018-06-21T05:30:46.950Z,84.90
2018-06-21T05:33:16.431Z,85.70
2018-06-21T05:35:45.697Z,85.70
2018-06-21T05:38:14.959Z,85.00
2018-06-21T05:40:44.171Z,85.10
2018-06-21T05:43:13.348Z,85.50
2018-06-21T05:45:42.655Z,85.10
2018-06-21T05:48:11.885Z,85.70
2018-06-21T05:50:41.085Z,85.60
2018-06-21T05:53:10.267Z,86.50
2018-06-21T05:55:39.444Z,86.00
2018-06-21T05:58:08.682Z,85.60
2018-06-21T06:00:37.904Z,85.80
2018-06-21T06:03:07.127Z,86.20
2018-06-21T06:05:36.338Z,86.60
2018-06-21T06:08:05.566Z,86.90
2018-06-21T06:10:34.841Z,86.60
2018-06-21T06:13:04.047Z,86.80
2018-06-21T06:15:33.287Z,88.00
2018-06-21T06:18:02.459Z,88.40
2018-06-21T06:20:31.963Z,88.90
2018-06-21T06:25:30.216Z,89.20
2018-06-21T06:30:28.181Z,89.30
2018-06-21T06:32:57.363Z,90.00
2018-06-21T06:35:28.630Z,90.20
2018-06-21T06:37:58.789Z,90.20
2018-06-21T06:40:28.153Z,90.10
2018-06-21T06:42:57.599Z,90.20
2018-06-21T06:45:26.795Z,90.50
2018-06-21T06:47:56.115Z,90.80
2018-06-21T06:52:54.130Z,91.30
2018-06-21T06:55:23.366Z,91.80
2018-06-21T06:57:52.559Z,91.80
2018-06-21T07:00:21.790Z,92.00
2018-06-21T07:02:50.987Z,92.40
2018-06-21T07:05:20.223Z,92.50
2018-06-21T07:07:49.439Z,92.70
2018-06-21T07:10:18.668Z,92.70
2018-06-21T07:12:48.012Z,92.80
2018-06-21T07:15:17.534Z,92.60
2018-06-21T07:17:46.738Z,92.70
2018-06-21T07:20:15.955Z,92.60
2018-06-21T07:22:45.208Z,92.80
2018-06-21T07:25:14.372Z,92.80
2018-06-21T07:27:43.622Z,92.80
2018-06-21T07:30:12.856Z,92.90
2018-06-21T07:32:42.051Z,92.60
2018-06-21T07:35:11.432Z,92.60
2018-06-21T07:37:40.661Z,92.60
2018-06-21T07:40:09.834Z,92.40
2018-06-21T07:42:39.033Z,92.50
2018-06-21T07:45:08.248Z,92.40
2018-06-21T07:47:37.673Z,92.40
2018-06-21T07:50:07.199Z,92.20
2018-06-21T07:52:36.377Z,92.20
2018-06-21T07:55:05.637Z,92.40
2018-06-21T07:57:34.847Z,93.30
2018-06-21T08:00:04.182Z,93.80
2018-06-21T08:02:33.434Z,94.30
2018-06-21T08:05:02.627Z,94.90
2018-06-21T08:07:31.836Z,94.80
2018-06-21T08:10:01.081Z,95.10
2018-06-21T08:12:30.255Z,95.10
2018-06-21T08:17:28.227Z,95.40
2018-06-21T08:19:57.484Z,95.70
2018-06-21T08:22:26.708Z,95.60
2018-06-21T08:24:55.967Z,95.60
2018-06-21T08:27:25.173Z,95.20
2018-06-21T08:29:54.362Z,95.00
2018-06-21T08:32:23.636Z,94.90
2018-06-21T08:34:52.844Z,94.50
2018-06-21T08:37:22.074Z,93.70
2018-06-21T08:39:51.282Z,93.10
2018-06-21T08:42:20.492Z,93.00
2018-06-21T08:44:49.726Z,92.90
2018-06-21T08:47:18.988Z,92.80
2018-06-21T08:49:48.207Z,92.80
2018-06-21T08:54:46.223Z,92.70
2018-06-21T08:57:15.439Z,91.80
2018-06-21T08:59:45.003Z,90.70
2018-06-21T09:02:14.179Z,87.50
2018-06-21T09:04:43.759Z,83.80
2018-06-21T09:07:12.972Z,83.30
2018-06-21T09:09:42.207Z,82.80
2018-06-21T09:12:11.378Z,80.70
2018-06-21T09:14:40.574Z,80.20
2018-06-21T09:17:09.755Z,80.00
2018-06-21T09:19:38.960Z,77.70
2018-06-21T09:22:08.191Z,76.90
2018-06-21T09:24:37.383Z,76.40
2018-06-21T09:27:06.618Z,76.50
2018-06-21T09:29:36.149Z,75.60
2018-06-21T09:32:05.320Z,74.40
2018-06-21T09:34:34.562Z,72.80
2018-06-21T09:37:03.761Z,72.70
2018-06-21T09:39:38.324Z,71.40
2018-06-21T09:42:12.790Z,70.50
2018-06-21T09:44:47.399Z,71.30
2018-06-21T09:47:21.840Z,71.80
2018-06-21T09:49:51.078Z,71.60
2018-06-21T09:52:21.238Z,72.10
2018-06-21T09:54:50.486Z,71.10
2018-06-21T09:57:19.945Z,70.50
2018-06-21T09:59:50.817Z,69.50
2018-06-21T10:02:20.439Z,69.40
2018-06-21T10:04:50.335Z,71.40
2018-06-21T10:07:19.589Z,70.80
2018-06-21T10:09:49.451Z,69.20
2018-06-21T10:12:18.810Z,66.00
2018-06-21T10:14:48.124Z,65.90
2018-06-21T10:17:18.186Z,64.40
2018-06-21T10:19:47.430Z,64.10
2018-06-21T10:22:16.828Z,65.60
2018-06-21T10:24:46.095Z,66.70
2018-06-21T10:27:15.338Z,68.60
2018-06-21T10:29:44.916Z,70.30
2018-06-21T10:32:14.137Z,64.40
2018-06-21T10:34:43.648Z,62.50
2018-06-21T10:37:13.070Z,61.50
2018-06-21T10:39:42.451Z,62.10
2018-06-21T10:42:11.771Z,60.90
2018-06-21T10:44:40.989Z,60.40
2018-06-21T10:47:10.184Z,60.60
2018-06-21T10:49:39.458Z,60.90
2018-06-21T10:52:08.723Z,60.00
2018-06-21T10:54:38.907Z,59.00
2018-06-21T10:57:08.376Z,59.30
2018-06-21T10:59:37.538Z,58.40
2018-06-21T11:02:06.990Z,60.00
2018-06-21T11:04:36.278Z,61.10
2018-06-21T11:07:05.696Z,61.80
2018-06-21T11:09:34.948Z,63.00
2018-06-21T11:12:04.203Z,64.20
2018-06-21T11:14:33.670Z,64.60
2018-06-21T11:17:02.926Z,62.00
2018-06-21T11:19:32.212Z,59.30
2018-06-21T11:22:01.627Z,58.50
2018-06-21T11:24:31.033Z,57.60
2018-06-21T11:27:00.256Z,57.50
2018-06-21T11:29:29.486Z,54.80
2018-06-21T11:31:58.828Z,52.10
2018-06-21T11:34:28.078Z,50.00
2018-06-21T11:36:57.830Z,50.10
2018-06-21T11:39:27.068Z,49.40
2018-06-21T11:41:58.231Z,50.40
2018-06-21T11:44:27.507Z,50.80
2018-06-21T11:46:57.392Z,49.50
2018-06-21T11:49:33.200Z,47.10
2018-06-21T11:52:02.545Z,47.00
2018-06-21T11:54:31.862Z,50.00
2018-06-21T11:57:01.271Z,48.70
2018-06-21T11:59:30.502Z,48.00
2018-06-21T12:02:00.750Z,48.10
2018-06-21T12:04:30.078Z,46.70
2018-06-21T12:06:59.965Z,46.70
2018-06-21T12:09:29.279Z,48.00
2018-06-21T12:11:59.376Z,48.80
2018-06-21T12:14:28.758Z,49.90
2018-06-21T12:16:58.134Z,50.20
2018-06-21T12:19:28.027Z,47.60
2018-06-21T12:21:57.411Z,46.80
2018-06-21T12:24:27.092Z,48.60
2018-06-21T12:26:56.486Z,45.80
2018-06-21T12:31:54.689Z,47.70
2018-06-21T12:34:24.336Z,49.40
2018-06-21T12:36:53.722Z,49.30
2018-06-21T12:39:23.012Z,50.40
2018-06-21T12:41:52.200Z,47.70
2018-06-21T12:44:21.455Z,46.40
2018-06-21T12:46:50.724Z,44.10
2018-06-21T12:49:19.972Z,45.20
2018-06-21T12:51:49.356Z,44.40
2018-06-21T12:54:18.623Z,45.50
2018-06-21T12:56:47.888Z,43.70
2018-06-21T12:59:17.685Z,43.50
2018-06-21T13:01:46.935Z,44.60
2018-06-21T13:04:17.525Z,45.80
2018-06-21T13:06:46.823Z,44.70
2018-06-21T13:10:25.082Z,44.30
2018-06-21T13:13:09.779Z,45.30
2018-06-21T13:15:39.748Z,44.10
2018-06-21T13:18:09.214Z,44.20
2018-06-21T13:20:38.617Z,45.40
2018-06-21T13:23:08.074Z,46.60
2018-06-21T13:25:37.395Z,46.10
2018-06-21T13:28:07.489Z,44.30
2018-06-21T13:30:36.907Z,42.10
2018-06-21T13:33:07.079Z,44.10
2018-06-21T13:35:36.675Z,44.30
2018-06-21T13:38:07.259Z,43.80
2018-06-21T13:40:36.740Z,43.80
2018-06-21T13:43:06.970Z,45.10
2018-06-21T13:45:36.450Z,44.30
2018-06-21T13:48:06.632Z,42.50
2018-06-21T13:50:36.013Z,43.90
2018-06-21T13:53:05.524Z,45.30
2018-06-21T13:55:34.963Z,45.30
2018-06-21T13:58:04.396Z,45.30
2018-06-21T14:00:33.865Z,43.60
2018-06-21T14:03:03.239Z,45.20
2018-06-21T14:05:32.780Z,45.00
2018-06-21T14:08:03.154Z,43.80
2018-06-21T14:10:32.153Z,44.30
2018-06-21T14:13:01.402Z,42.50
2018-06-21T14:15:30.632Z,43.40
2018-06-21T14:17:59.936Z,44.10
2018-06-21T14:22:58.283Z,42.30
2018-06-21T14:25:27.524Z,42.70
2018-06-21T14:27:56.745Z,43.40
2018-06-21T14:30:26.020Z,42.80
2018-06-21T14:32:55.203Z,42.70
2018-06-21T14:35:24.472Z,43.50
2018-06-21T14:40:22.494Z,42.90
2018-06-21T14:42:51.743Z,41.60
2018-06-21T14:45:21.828Z,41.80
2018-06-21T14:47:51.163Z,43.70
2018-06-21T14:50:20.324Z,44.00
2018-06-21T14:52:49.539Z,43.60
2018-06-21T14:55:18.825Z,44.70
2018-06-21T14:57:48.144Z,42.50
2018-06-21T15:00:17.348Z,42.70
2018-06-21T15:02:46.576Z,43.50
2018-06-21T15:05:15.864Z,43.60
2018-06-21T15:07:45.047Z,42.80
2018-06-21T15:10:14.271Z,41.90
2018-06-21T15:12:43.585Z,42.20
2018-06-21T15:15:12.894Z,43.30
2018-06-21T15:17:42.230Z,43.30
2018-06-21T15:20:11.476Z,43.30
2018-06-21T15:22:40.947Z,43.40
2018-06-21T15:25:10.310Z,42.40
2018-06-21T15:27:40.067Z,43.80
2018-06-21T15:30:09.529Z,42.90
2018-06-21T15:32:38.830Z,42.10
2018-06-21T15:35:08.596Z,43.10
2018-06-21T15:37:38.180Z,42.40
2018-06-21T15:40:07.536Z,41.90
2018-06-21T15:42:37.208Z,42.10
2018-06-21T15:45:06.745Z,43.20
2018-06-21T15:47:36.589Z,43.20
2018-06-21T15:50:06.214Z,43.80
2018-06-21T15:52:35.655Z,44.60
2018-06-21T15:55:05.137Z,43.80
2018-06-21T15:57:34.832Z,45.10
2018-06-21T16:00:08.076Z,44.60
2018-06-21T16:02:37.626Z,44.90
2018-06-21T16:05:07.246Z,44.80
2018-06-21T16:07:36.816Z,45.10
2018-06-21T16:10:06.408Z,44.10
2018-06-21T16:12:35.944Z,46.10
2018-06-21T16:15:05.249Z,44.50
2018-06-21T16:17:34.671Z,44.50
2018-06-21T16:20:04.010Z,45.30
2018-06-21T16:22:33.333Z,46.00
2018-06-21T16:25:02.811Z,47.00
2018-06-21T16:27:32.269Z,45.70
2018-06-21T16:30:01.632Z,46.10
2018-06-21T16:32:30.984Z,45.90
2018-06-21T16:35:00.259Z,45.80
2018-06-21T16:37:29.487Z,46.60
2018-06-21T16:39:58.841Z,47.70
2018-06-21T16:42:28.373Z,48.60
2018-06-21T16:44:57.892Z,48.90
2018-06-21T16:47:27.391Z,48.10
2018-06-21T16:49:56.684Z,48.80
2018-06-21T16:52:26.148Z,48.80
2018-06-21T16:54:55.870Z,49.60
2018-06-21T16:57:26.036Z,49.30
2018-06-21T16:59:55.436Z,49.90
2018-06-21T17:02:25.251Z,48.70
2018-06-21T17:04:54.561Z,48.70
2018-06-21T17:07:24.416Z,48.10
2018-06-21T17:09:53.819Z,48.00
2018-06-21T17:12:23.395Z,48.30
2018-06-21T17:14:53.253Z,49.20
2018-06-21T17:17:22.502Z,50.00
2018-06-21T17:19:51.768Z,50.10
2018-06-21T17:22:21.068Z,50.40
2018-06-21T17:24:50.356Z,49.50
2018-06-21T17:27:19.574Z,50.00
2018-06-21T17:29:48.802Z,50.20
2018-06-21T17:32:18.153Z,50.20
2018-06-21T17:34:47.441Z,50.30
2018-06-21T17:37:16.708Z,51.30
2018-06-21T17:39:45.995Z,51.40
2018-06-21T17:42:15.336Z,51.00
2018-06-21T17:44:44.609Z,51.20
2018-06-21T17:47:13.951Z,51.10
2018-06-21T17:49:43.163Z,50.80
2018-06-21T17:52:12.393Z,50.60
2018-06-21T17:54:41.915Z,51.50
2018-06-21T17:57:11.260Z,51.60
2018-06-21T17:59:40.539Z,51.80
2018-06-21T18:02:10.256Z,51.60
2018-06-21T18:04:39.731Z,52.90
2018-06-21T18:07:09.115Z,53.50
2018-06-21T18:09:38.750Z,53.30
2018-06-21T18:12:08.317Z,54.30
2018-06-21T18:14:43.916Z,53.60
2018-06-21T18:17:13.258Z,53.80
2018-06-21T18:19:42.871Z,53.10
2018-06-21T18:22:12.280Z,53.60
2018-06-21T18:27:11.261Z,54.20
2018-06-21T18:29:40.519Z,54.70
2018-06-21T18:32:09.988Z,54.90
2018-06-21T18:34:39.394Z,55.00
2018-06-21T18:37:08.935Z,55.50
2018-06-21T18:39:38.400Z,56.00
2018-06-21T18:42:07.712Z,56.30
2018-06-21T18:44:37.343Z,56.70
2018-06-21T18:47:06.994Z,56.70
2018-06-21T18:49:36.359Z,56.60
2018-06-21T18:52:06.634Z,57.50
2018-06-21T18:54:35.906Z,58.00
2018-06-21T18:57:05.395Z,58.60
2018-06-21T18:59:35.258Z,59.90
2018-06-21T19:02:04.796Z,59.80
2018-06-21T19:04:34.972Z,60.30
2018-06-21T19:07:09.577Z,60.40
2018-06-21T19:09:44.030Z,61.00
2018-06-21T19:14:43.751Z,61.10
2018-06-21T19:17:13.142Z,61.80
2018-06-21T19:19:42.659Z,62.30
2018-06-21T19:22:12.073Z,63.20
2018-06-21T19:24:41.400Z,63.40
2018-06-21T19:27:10.734Z,63.60
2018-06-21T19:29:40.053Z,64.00
2018-06-21T19:32:09.376Z,64.50
2018-06-21T19:34:38.629Z,64.40
2018-06-21T19:37:08.016Z,64.50
2018-06-21T19:39:37.879Z,64.00
2018-06-21T19:42:07.188Z,64.00
2018-06-21T19:44:36.619Z,63.60
2018-06-21T19:47:06.038Z,63.50
2018-06-21T19:49:35.387Z,63.20
2018-06-21T19:54:33.694Z,63.70
2018-06-21T19:57:02.942Z,64.50
2018-06-21T19:59:32.325Z,64.20
2018-06-21T20:02:01.729Z,64.30
2018-06-21T20:04:30.961Z,64.80
2018-06-21T20:07:00.255Z,64.50
2018-06-21T20:09:30.402Z,65.30
2018-06-21T20:11:59.834Z,64.60
2018-06-21T20:14:29.142Z,65.80
2018-06-21T20:16:58.394Z,65.30
2018-06-21T20:19:27.787Z,65.90
2018-06-21T20:21:57.012Z,66.30
2018-06-21T20:24:26.367Z,66.80
2018-06-21T20:26:55.695Z,67.10
2018-06-21T20:29:25.143Z,66.40
2018-06-21T20:31:54.876Z,67.00
2018-06-21T20:34:24.675Z,66.90
2018-06-21T20:36:54.110Z,67.30
2018-06-21T20:39:24.275Z,67.80
2018-06-21T20:41:53.658Z,67.90
2018-06-21T20:44:23.024Z,68.10
2018-06-21T20:46:53.272Z,67.80
2018-06-21T20:49:22.683Z,68.60
2018-06-21T20:51:52.288Z,68.20
2018-06-21T20:54:21.713Z,68.60
2018-06-21T20:56:51.312Z,68.60
2018-06-21T20:59:20.582Z,68.80
2018-06-21T21:01:50.327Z,68.90
2018-06-21T21:04:19.824Z,69.60
2018-06-21T21:06:49.554Z,69.60
2018-06-21T21:09:19.050Z,70.70
2018-06-21T21:11:48.603Z,71.10
2018-06-21T21:14:18.357Z,71.50
2018-06-21T21:16:48.007Z,72.30
2018-06-21T21:19:17.560Z,71.70
2018-06-21T21:21:47.807Z,71.70
2018-06-21T21:24:17.304Z,71.40
2018-06-21T21:26:47.684Z,71.00
2018-06-21T21:29:17.231Z,70.20
2018-06-21T21:31:47.351Z,70.60
2018-06-21T21:34:17.515Z,70.90
2018-06-21T21:36:47.035Z,71.30
2018-06-21T21:39:16.322Z,71.20
2018-06-21T21:41:46.892Z,70.80
2018-06-21T21:44:16.251Z,71.10
2018-06-21T21:49:14.376Z,70.80
2018-06-21T21:51:44.155Z,71.00
2018-06-21T21:54:13.652Z,70.90
2018-06-21T21:56:42.923Z,71.20
2018-06-21T21:59:14.687Z,71.40
2018-06-21T22:01:44.017Z,72.10
2018-06-21T22:04:13.351Z,72.30
2018-06-21T22:16:27.880Z,72.50
2018-06-21T22:18:57.040Z,73.70
2018-06-21T22:21:26.414Z,74.20
2018-06-21T22:23:55.663Z,74.20
2018-06-21T22:26:24.991Z,74.60
2018-06-21T22:28:54.409Z,74.60
2018-06-21T22:31:23.596Z,74.50
2018-06-21T22:33:53.258Z,74.80
2018-06-21T22:36:22.627Z,75.20
2018-06-21T22:38:51.824Z,75.10
2018-06-21T22:41:21.018Z,75.80
2018-06-21T22:43:50.188Z,75.90
2018-06-21T22:46:19.448Z,76.00
2018-06-21T22:48:48.672Z,76.30
2018-06-21T22:51:17.902Z,77.10
2018-06-21T22:53:47.095Z,77.30
2018-06-21T22:56:16.268Z,77.80
2018-06-21T22:58:45.482Z,77.60
2018-06-21T23:01:14.687Z,78.10
2018-06-21T23:03:43.896Z,78.60
2018-06-21T23:06:13.081Z,78.70
2018-06-21T23:08:42.414Z,78.90
2018-06-21T23:11:11.624Z,80.10
2018-06-21T23:13:40.803Z,79.60
2018-06-21T23:16:10.039Z,80.20
2018-06-21T23:18:50.375Z,80.30
2018-06-21T23:21:19.572Z,80.40
2018-06-21T23:23:48.770Z,80.30
2018-06-21T23:26:17.987Z,80.70
2018-06-21T23:28:47.187Z,80.90
2018-06-21T23:31:16.387Z,80.80
2018-06-21T23:33:45.859Z,81.00
2018-06-21T23:36:15.091Z,81.20
2018-06-21T23:38:44.338Z,81.00
2018-06-21T23:41:13.672Z,81.30
2018-06-21T23:43:42.857Z,81.50
2018-06-21T23:46:12.122Z,81.70
2018-06-21T23:48:41.286Z,81.80
2018-06-21T23:51:10.514Z,82.10
2018-06-21T23:53:39.756Z,81.90
2018-06-21T23:56:08.983Z,82.40
2018-06-21T23:58:38.195Z,82.00
